createdAt,value
2023-03-11T00:06:14.223Z,0
2023-03-11T00:11:33.281Z,0
2023-03-11T00:16:52.241Z,0
2023-03-11T00:22:11.396Z,0
2023-03-11T00:38:09.275Z,0
2023-03-11T00:54:06.312Z,0
2023-03-11T01:04:45.044Z,0
2023-03-11T01:10:04.039Z,0
2023-03-11T01:20:42.417Z,0
2023-03-11T01:31:21.022Z,0
2023-03-11T01:36:40.566Z,0
2023-03-11T01:47:18.595Z,0
2023-03-11T01:52:38.064Z,0
2023-03-11T02:03:16.894Z,0
2023-03-11T02:19:14.825Z,0
2023-03-11T02:29:53.028Z,0
2023-03-11T02:40:31.911Z,0
2023-03-11T02:46:16.448Z,0
2023-03-11T02:51:35.764Z,0
2023-03-11T03:02:15.123Z,0
2023-03-11T03:07:34.719Z,0
2023-03-11T03:18:13.981Z,0
2023-03-11T03:28:52.429Z,0
2023-03-11T03:39:30.953Z,0
2023-03-11T03:44:50.186Z,0
2023-03-11T03:50:09.542Z,0
2023-03-11T03:55:28.222Z,0
2023-03-11T04:06:07.374Z,0
2023-03-11T04:11:26.573Z,0
2023-03-11T04:22:04.517Z,0
2023-03-11T04:27:23.784Z,0
2023-03-11T04:38:03.229Z,0
2023-03-11T04:53:59.976Z,0
2023-03-11T05:04:38.774Z,0
2023-03-11T05:09:58.267Z,0
2023-03-11T05:20:36.807Z,0
2023-03-11T05:36:35.145Z,9
2023-03-11T05:47:13.723Z,24
2023-03-11T05:52:32.727Z,18
2023-03-11T06:03:11.328Z,30
2023-03-11T06:19:08.583Z,31.59
2023-03-11T06:29:48.607Z,45.1
2023-03-11T06:35:05.525Z,44.94
2023-03-11T06:45:43.292Z,71.69
2023-03-11T07:01:41.365Z,89.64
2023-03-11T07:28:18.102Z,177.2
2023-03-11T07:33:37.792Z,171.39
2023-03-11T07:44:16.976Z,187.04
2023-03-11T07:54:54.717Z,168.89
2023-03-11T08:00:14.172Z,171.79
2023-03-11T08:10:52.314Z,214.34
2023-03-11T08:16:11.264Z,166.25
2023-03-11T08:26:50.231Z,145
2023-03-11T08:37:29.020Z,111.54
2023-03-11T08:42:48.016Z,114
2023-03-11T08:53:26.721Z,191.14
2023-03-11T08:58:45.694Z,198.14
2023-03-11T09:09:24.935Z,339.69
2023-03-11T09:25:22.997Z,418.64
2023-03-11T09:36:00.889Z,301.15
2023-03-11T09:41:19.793Z,211.79
2023-03-11T09:51:58.348Z,228.9
2023-03-11T10:07:57.339Z,280.75
2023-03-11T10:18:36.457Z,302.19
2023-03-11T10:29:15.090Z,340.65
2023-03-11T10:34:34.253Z,377.94
2023-03-11T10:45:13.072Z,475.36
2023-03-11T10:55:51.182Z,488.06
2023-03-11T11:01:10.008Z,506.29
2023-03-11T11:11:49.506Z,232.59
2023-03-11T11:17:08.493Z,178.59
2023-03-11T11:27:46.893Z,158.29
2023-03-11T11:38:25.197Z,212.75
2023-03-11T11:43:44.311Z,326.5
2023-03-11T11:54:22.908Z,451
2023-03-11T11:59:42.559Z,463
2023-03-11T12:10:23.515Z,290.54
2023-03-11T12:26:19.623Z,261.29
2023-03-11T12:36:58.528Z,392.09
2023-03-11T12:42:18.112Z,361.09
2023-03-11T12:52:56.300Z,178.7
2023-03-11T12:58:15.431Z,201.79
2023-03-11T13:08:53.984Z,222.54
2023-03-11T13:24:52.077Z,347.69
2023-03-11T13:35:30.932Z,262.65
2023-03-11T13:40:49.811Z,205.45
2023-03-11T13:51:28.071Z,157.75
2023-03-11T14:07:25.217Z,132.45
2023-03-11T14:18:03.731Z,179.79
2023-03-11T14:23:23.149Z,189.54
2023-03-11T14:28:43.246Z,153.75
2023-03-11T14:34:01.615Z,129.04
2023-03-11T14:49:58.606Z,144
2023-03-11T15:00:36.826Z,168.5
2023-03-11T15:05:56.449Z,149.45
2023-03-11T15:16:35.275Z,166.64
2023-03-11T15:21:54.335Z,109.75
2023-03-11T15:32:32.622Z,120.1
2023-03-11T15:48:30.180Z,138.79
2023-03-11T15:53:49.212Z,172.89
2023-03-11T15:59:08.202Z,152.2
2023-03-11T16:15:06.312Z,117.64
2023-03-11T16:25:45.040Z,71.55
2023-03-11T16:31:04.191Z,65.19
2023-03-11T16:41:42.090Z,77.19
2023-03-11T16:47:01.380Z,71.69
2023-03-11T16:57:40.030Z,47.35
2023-03-11T17:02:59.529Z,37.04
2023-03-11T17:08:18.855Z,34.89
2023-03-11T17:18:57.037Z,27.1
2023-03-11T17:24:15.933Z,18
2023-03-11T17:34:54.115Z,4
2023-03-11T17:50:51.521Z,0
2023-03-11T17:56:11.102Z,0
2023-03-11T18:01:30.652Z,0
2023-03-11T18:06:49.928Z,0
2023-03-11T18:17:28.859Z,0
2023-03-11T18:33:26.011Z,0
2023-03-11T18:44:05.051Z,0
2023-03-11T18:49:24.721Z,0
2023-03-11T19:00:03.078Z,0
2023-03-11T19:16:01.517Z,0
2023-03-11T19:26:45.074Z,0
2023-03-11T19:32:02.339Z,0
2023-03-11T19:37:19.380Z,0
2023-03-11T19:42:38.560Z,0
2023-03-11T19:47:57.638Z,0
2023-03-11T19:58:36.352Z,0
2023-03-11T20:09:15.568Z,0
2023-03-11T20:14:34.704Z,0
2023-03-11T20:19:54.472Z,0
2023-03-11T20:25:13.777Z,0
2023-03-11T20:30:58.216Z,0
2023-03-11T20:41:36.503Z,0
2023-03-11T20:46:55.658Z,0
2023-03-11T20:57:34.413Z,0
2023-03-11T21:13:32.611Z,0
2023-03-11T21:24:11.057Z,0
2023-03-11T21:29:30.346Z,0
2023-03-11T21:40:08.759Z,0
2023-03-11T21:56:06.911Z,0
2023-03-11T22:06:46.187Z,0
2023-03-11T22:12:05.448Z,0
2023-03-11T22:22:43.710Z,0
2023-03-11T22:28:02.564Z,0
2023-03-11T22:34:36.730Z,0
2023-03-11T22:38:42.438Z,0
2023-03-11T22:49:21.274Z,0
2023-03-11T22:54:39.942Z,0
2023-03-11T23:05:19.059Z,0
2023-03-11T23:21:17.059Z,0
2023-03-11T23:37:14.772Z,0
2023-03-11T23:47:53.894Z,0
2023-03-11T23:53:13.245Z,0
2023-03-11T23:58:32.504Z,0
